Time;durP1;ratioP1;P1;durP2;ratioP2;P2;SDS_P1;SDS_P2;PMS_P1;PMS_P2;Temp;Humidity;BMP_temperature;BMP_pressure;BME280_temperature;BME280_humidity;BME280_pressure;Samples;Min_cycle;Max_cycle;Signal;HPM_P1;HPM_P2
2022/11/20 00:01:51;;;;;;;17.73;15.93;;;;;;;0.33;71.31;101193.13;5096142;28;20039;-59
2022/11/20 00:04:16;;;;;;;20.20;17.43;;;;;;;0.27;71.53;101201.09;5111446;28;20028;-59
2022/11/20 00:06:42;;;;;;;19.97;17.57;;;;;;;0.21;72.29;101204.66;5101508;28;20076;-59
2022/11/20 00:09:10;;;;;;;20.70;18.70;;;;;;;0.07;72.62;101206.59;5095304;28;20051;-59
2022/11/20 00:11:35;;;;;;;19.13;17.13;;;;;;;0.03;71.70;101198.78;5096055;28;20024;-59
2022/11/20 00:14:02;;;;;;;19.43;17.43;;;;;;;0.22;71.99;101201.13;5095394;28;20054;-59
2022/11/20 00:16:30;;;;;;;19.37;17.40;;;;;;;0.03;72.07;101204.91;5095354;28;20073;-59
2022/11/20 00:18:56;;;;;;;20.17;17.90;;;;;;;0.03;72.41;101201.41;5094025;28;20425;-59
2022/11/20 00:21:23;;;;;;;18.93;16.87;;;;;;;0.01;72.25;101204.06;5095178;28;20069;-59
2022/11/20 00:23:50;;;;;;;21.53;19.33;;;;;;;-0.06;73.49;101187.59;5109357;28;20390;-59
2022/11/20 00:26:20;;;;;;;19.93;17.27;;;;;;;0.09;72.70;101196.97;5115224;28;20459;-59
2022/11/20 00:28:57;;;;;;;21.92;17.95;;;;;;;0.07;72.80;101182.19;5115613;28;20081;-59
2022/11/20 00:31:23;;;;;;;19.77;17.53;;;;;;;-0.05;73.14;101194.56;5114193;28;20027;-59
2022/11/20 00:33:49;;;;;;;19.57;17.53;;;;;;;-0.01;72.97;101190.13;5095152;28;20078;-59
2022/11/20 00:36:17;;;;;;;21.20;18.40;;;;;;;0.04;72.72;101187.47;5094553;28;20390;-59
2022/11/20 00:38:44;;;;;;;20.23;17.00;;;;;;;0.06;71.98;101191.81;5094962;28;20024;-59
2022/11/20 00:41:14;;;;;;;21.13;17.47;;;;;;;-0.06;72.54;101195.44;5106637;28;20066;-59
2022/11/20 00:43:40;;;;;;;21.53;18.70;;;;;;;-0.09;72.62;101200.72;5094764;28;20520;-59
2022/11/20 00:46:09;;;;;;;21.47;19.27;;;;;;;-0.07;72.82;101193.69;5093716;28;20117;-59
2022/11/20 00:48:35;;;;;;;20.77;18.07;;;;;;;-0.09;72.53;101187.66;5094860;28;20073;-59
2022/11/20 00:51:00;;;;;;;20.00;17.87;;;;;;;-0.08;72.92;101194.59;5095760;28;20028;-59
2022/11/20 00:53:26;;;;;;;23.97;18.43;;;;;;;-0.08;73.18;101188.50;5114518;28;20497;-59
2022/11/20 00:56:00;;;;;;;20.77;18.53;;;;;;;-0.18;73.58;101184.28;5114490;28;20101;-59
2022/11/20 00:58:30;;;;;;;19.50;17.47;;;;;;;-0.22;72.83;101193.06;5094806;28;20056;-59
2022/11/20 01:01:06;;;;;;;21.15;19.00;;;;;;;-0.16;73.54;101182.50;5099426;28;20015;-59
2022/11/20 01:03:33;;;;;;;21.20;18.90;;;;;;;-0.33;73.89;101191.44;5113536;28;20023;-59
2022/11/20 01:06:05;;;;;;;22.13;19.83;;;;;;;-0.32;74.42;101193.19;5114391;28;20506;-59
2022/11/20 01:08:34;;;;;;;21.00;18.73;;;;;;;-0.26;74.83;101184.41;5114901;28;20482;-59
2022/11/20 01:11:06;;;;;;;22.20;19.38;;;;;;;-0.29;73.57;101190.53;5112469;28;20051;-59
2022/11/20 01:13:38;;;;;;;20.93;18.70;;;;;;;-0.33;73.93;101186.19;5112836;28;20043;-59
2022/11/20 01:16:12;;;;;;;21.33;18.83;;;;;;;-0.29;73.77;101177.47;5114706;28;20070;-59
2022/11/20 01:18:40;;;;;;;22.47;20.17;;;;;;;-0.26;73.58;101187.00;5114902;28;20020;-59
2022/11/20 01:21:08;;;;;;;22.40;18.57;;;;;;;-0.26;73.81;101193.09;5104839;28;20085;-59
2022/11/20 01:23:35;;;;;;;22.30;19.90;;;;;;;-0.28;73.81;101197.47;5094325;28;20047;-59
2022/11/20 01:26:09;;;;;;;23.27;20.10;;;;;;;-0.30;74.34;101194.00;5093809;28;20020;-59
2022/11/20 01:28:35;;;;;;;23.77;19.90;;;;;;;-0.29;74.40;101200.97;5094254;28;20028;-59
2022/11/20 01:31:00;;;;;;;24.80;20.40;;;;;;;-0.16;74.56;101187.75;5097258;28;20089;-59
2022/11/20 01:33:26;;;;;;;26.10;20.70;;;;;;;-0.18;74.75;101186.88;5094072;28;20027;-59
2022/11/20 01:35:53;;;;;;;25.63;21.13;;;;;;;-0.29;75.43;101181.81;5093555;28;20074;-59
2022/11/20 01:38:22;;;;;;;26.90;21.07;;;;;;;-0.28;74.75;101186.16;5093945;28;20521;-59
2022/11/20 01:40:55;;;;;;;26.50;22.03;;;;;;;-0.33;75.07;101178.34;5093187;28;20494;-59
2022/11/20 01:43:21;;;;;;;23.80;21.13;;;;;;;-0.19;74.53;101185.16;5095860;28;20027;-59
2022/11/20 01:45:57;;;;;;;23.90;20.37;;;;;;;-0.18;75.46;101185.13;5092917;28;20028;-59
2022/11/20 01:48:28;;;;;;;25.37;21.30;;;;;;;-0.25;75.62;101178.28;5094376;28;20077;-59
2022/11/20 01:50:55;;;;;;;23.53;20.67;;;;;;;-0.28;74.98;101175.69;5091892;28;20028;-59
2022/11/20 01:53:28;;;;;;;23.60;21.10;;;;;;;-0.24;75.26;101183.50;5092890;28;20020;-59
2022/11/20 01:55:56;;;;;;;23.83;20.27;;;;;;;-0.21;75.13;101192.16;5092134;28;20479;-59
2022/11/20 01:58:30;;;;;;;24.43;21.77;;;;;;;-0.32;74.81;101190.56;5092686;28;20062;-59
2022/11/20 02:00:58;;;;;;;25.67;21.80;;;;;;;-0.32;75.74;101184.47;5104576;28;20019;-59
2022/11/20 02:03:24;;;;;;;26.57;20.73;;;;;;;-0.23;74.95;101171.28;5103413;28;20031;-59
2022/11/20 02:06:02;;;;;;;24.43;20.63;;;;;;;-0.28;74.88;101171.34;5095982;28;20105;-59
2022/11/20 02:08:33;;;;;;;23.83;20.43;;;;;;;-0.37;75.40;101171.47;5093362;28;20020;-59
2022/11/20 02:10:58;;;;;;;25.17;20.30;;;;;;;-0.28;76.03;101179.19;5096394;28;20446;-59
2022/11/20 02:16:35;;;;;;;23.43;20.70;;;;;;;-0.35;76.03;101164.47;5093091;28;20109;-59
2022/11/20 02:19:03;;;;;;;24.40;19.97;;;;;;;-0.43;75.70;101173.28;5092916;28;20035;-59
2022/11/20 02:21:50;;;;;;;24.47;21.23;;;;;;;-0.48;76.52;101168.97;5097139;28;20023;-59
2022/11/20 02:24:19;;;;;;;24.97;20.27;;;;;;;-0.45;75.73;101165.47;5097895;28;20028;-59
2022/11/20 02:27:03;;;;;;;26.63;20.70;;;;;;;-0.41;76.72;101172.41;5125069;27;20035;-59
2022/11/20 02:30:00;;;;;;;22.70;20.40;;;;;;;-0.39;76.70;101170.59;5093136;28;20398;-59
2022/11/20 02:32:32;;;;;;;21.07;18.73;;;;;;;-0.44;76.83;101175.03;5087727;28;20089;-59
2022/11/20 02:34:58;;;;;;;23.40;19.97;;;;;;;-0.38;76.29;101169.75;5092757;28;20108;-59
2022/11/20 02:37:29;;;;;;;21.77;19.10;;;;;;;-0.33;76.92;101164.44;5092739;28;20103;-59
2022/11/20 02:39:55;;;;;;;23.90;19.93;;;;;;;-0.37;75.93;101161.00;5106892;28;20416;-59
2022/11/20 02:42:21;;;;;;;22.37;19.97;;;;;;;-0.35;75.99;101169.69;5108362;28;20028;-59
2022/11/20 02:44:46;;;;;;;22.67;20.27;;;;;;;-0.47;76.39;101167.25;5092794;28;20554;-59
2022/11/20 02:47:12;;;;;;;25.20;20.43;;;;;;;-0.40;76.79;101163.66;5092279;28;20038;-59
2022/11/20 02:49:37;;;;;;;24.20;18.87;;;;;;;-0.35;76.49;101176.69;5092331;28;20111;-59
2022/11/20 02:52:07;;;;;;;22.50;19.73;;;;;;;-0.33;76.61;101169.66;5100166;28;20118;-59
2022/11/20 02:54:32;;;;;;;;;;;;;;;-0.13;76.44;101169.41;5145848;27;20027;-59
2022/11/20 02:56:58;;;;;;;25.90;19.73;;;;;;;-0.31;76.52;101160.91;5095234;28;20336;-59
2022/11/20 02:59:23;;;;;;;23.83;19.57;;;;;;;-0.28;76.93;101160.88;5107969;28;20028;-59
2022/11/20 03:01:49;;;;;;;23.57;20.10;;;;;;;-0.35;76.51;101147.94;5126054;27;20020;-59
2022/11/20 03:04:15;;;;;;;21.70;18.97;;;;;;;-0.25;76.18;101149.53;5091753;28;20040;-59
2022/11/20 03:06:40;;;;;;;23.17;19.53;;;;;;;-0.25;76.30;101155.59;5090858;28;20073;-60
2022/11/20 03:09:09;;;;;;;23.00;20.07;;;;;;;-0.26;77.20;101153.03;5092336;28;20070;-59
2022/11/20 03:11:36;;;;;;;23.40;21.00;;;;;;;-0.23;76.83;101153.00;5099118;28;20035;-59
2022/11/20 03:14:04;;;;;;;22.70;19.73;;;;;;;-0.15;76.52;101152.88;5095409;28;20403;-59
2022/11/20 03:16:31;;;;;;;23.70;21.20;;;;;;;-0.21;77.32;101145.13;5091671;28;20066;-59
2022/11/20 03:18:56;;;;;;;22.70;20.17;;;;;;;-0.09;76.97;101147.53;5091884;28;20525;-59
2022/11/20 03:21:22;;;;;;;24.57;20.53;;;;;;;-0.14;76.57;101152.00;5093131;28;20020;-59
2022/11/20 03:23:48;;;;;;;23.67;21.17;;;;;;;-0.21;75.41;101148.59;5098536;28;20023;-60
2022/11/20 03:26:20;;;;;;;29.73;19.77;;;;;;;-0.09;75.49;101151.06;5111334;28;20038;-59
2022/11/20 03:28:51;;;;;;;24.00;21.53;;;;;;;-0.19;75.97;101144.22;5112321;28;20051;-59
2022/11/20 03:31:20;;;;;;;22.03;19.87;;;;;;;-0.05;75.87;101141.41;5100059;28;20074;-59
2022/11/20 03:33:48;;;;;;;26.57;22.67;;;;;;;-0.28;75.40;101142.59;5112322;28;20080;-59
2022/11/20 03:36:15;;;;;;;26.73;20.43;;;;;;;-0.13;75.87;101143.25;5112101;28;20020;-59
2022/11/20 03:38:41;;;;;;;25.13;22.47;;;;;;;-0.15;76.42;101134.56;5110202;28;20518;-59
2022/11/20 03:41:12;;;;;;;23.50;19.83;;;;;;;-0.03;75.94;101123.94;5092569;28;20020;-59
2022/11/20 03:43:38;;;;;;;25.60;21.73;;;;;;;-0.15;75.38;101116.28;5099575;28;20049;-59
2022/11/20 03:46:07;;;;;;;23.80;21.33;;;;;;;-0.12;76.29;101111.88;5111775;28;20031;-59
2022/11/20 03:48:32;;;;;;;22.87;20.20;;;;;;;-0.03;75.71;101113.47;5070406;28;20029;-59
2022/11/20 03:51:12;;;;;;;23.47;21.07;;;;;;;-0.06;75.30;101117.03;5085297;28;20426;-59
2022/11/20 03:53:39;;;;;;;23.05;19.85;;;;;;;-0.08;75.75;101112.69;5099249;28;20028;-59
2022/11/20 03:56:07;;;;;;;25.80;23.07;;;;;;;-0.33;76.20;101097.34;5089720;28;20032;-59
2022/11/20 03:58:35;;;;;;;25.40;21.07;;;;;;;-0.16;76.52;101102.34;5090776;28;20024;-59
2022/11/20 04:01:07;;;;;;;24.23;21.67;;;;;;;-0.23;76.46;101105.94;5088611;28;20138;-59
2022/11/20 04:03:33;;;;;;;23.77;19.97;;;;;;;-0.19;75.98;101096.31;5091730;28;20032;-59
2022/11/20 04:06:09;;;;;;;25.67;22.97;;;;;;;-0.09;76.37;101098.78;5089240;28;20036;-59
2022/11/20 04:08:35;;;;;;;26.07;21.57;;;;;;;-0.16;76.65;101106.72;5089271;28;20605;-59
2022/11/20 04:11:23;;;;;;;24.97;22.47;;;;;;;-0.16;76.93;101097.13;5087026;28;20032;-59
2022/11/20 04:13:54;;;;;;;25.33;21.70;;;;;;;-0.16;76.48;101104.09;5077218;28;20056;-59
2022/11/20 04:16:21;;;;;;;24.77;22.23;;;;;;;-0.31;76.39;101110.41;5091064;28;20054;-59
2022/11/20 04:18:47;;;;;;;26.23;20.43;;;;;;;-0.21;77.08;101096.31;5094437;28;20054;-59
2022/11/20 04:21:13;;;;;;;26.37;22.63;;;;;;;-0.28;76.87;101102.53;5089991;28;20043;-59
2022/11/20 04:23:39;;;;;;;25.90;22.43;;;;;;;-0.11;76.79;101102.28;5082664;28;20472;-59
2022/11/20 04:26:10;;;;;;;25.73;22.00;;;;;;;-0.19;77.08;101096.31;5116370;27;20054;-59
2022/11/20 04:28:36;;;;;;;23.90;19.67;;;;;;;-0.13;76.67;101098.81;5094264;28;20093;-59
2022/11/20 04:31:07;;;;;;;24.03;21.53;;;;;;;-0.22;77.08;101091.13;5090069;28;20032;-59
2022/11/20 04:33:33;;;;;;;27.23;20.93;;;;;;;-0.13;77.04;101101.44;5089831;28;20067;-59
2022/11/20 04:36:10;;;;;;;24.13;21.47;;;;;;;-0.12;77.48;101101.44;5092239;28;20028;-59
2022/11/20 04:38:38;;;;;;;25.10;21.43;;;;;;;-0.12;77.12;101097.94;5094653;28;20052;-59
2022/11/20 04:41:07;;;;;;;24.63;22.00;;;;;;;-0.24;77.67;101085.91;5107093;28;20101;-59
2022/11/20 04:43:33;;;;;;;23.37;19.70;;;;;;;-0.10;77.05;101096.16;5101342;28;20498;-59
2022/11/20 04:45:59;;;;;;;25.73;23.03;;;;;;;-0.14;77.47;101092.75;5086845;28;20109;-59
2022/11/20 04:48:27;;;;;;;25.13;21.60;;;;;;;-0.11;77.68;101087.47;5090668;28;20111;-59
2022/11/20 04:50:53;;;;;;;24.70;22.10;;;;;;;-0.18;78.16;101079.72;5092781;28;20035;-59
2022/11/20 04:53:19;;;;;;;24.80;22.10;;;;;;;-0.07;77.54;101089.13;5095037;28;20548;-59
2022/11/20 04:55:47;;;;;;;23.57;20.13;;;;;;;-0.07;77.25;101089.13;5091947;28;20082;-59
2022/11/20 04:58:13;;;;;;;25.90;23.10;;;;;;;-0.06;77.86;101092.59;5093720;28;20055;-59
2022/11/20 05:00:39;;;;;;;22.97;20.50;;;;;;;-0.03;77.75;101090.84;5098869;28;20122;-59
2022/11/20 05:03:05;;;;;;;25.37;22.67;;;;;;;-0.15;78.25;101070.09;5105424;28;20081;-59
2022/11/20 05:05:31;;;;;;;26.77;20.53;;;;;;;-0.04;77.38;101080.38;5092255;28;20086;-59
2022/11/20 05:07:57;;;;;;;25.30;22.63;;;;;;;-0.14;77.68;101078.81;5093554;28;20501;-59
2022/11/20 05:10:25;;;;;;;24.27;21.67;;;;;;;-0.02;78.05;101078.63;5098254;28;20039;-59
2022/11/20 05:12:50;;;;;;;26.40;21.87;;;;;;;-0.11;77.99;101073.53;5094832;28;20100;-59
2022/11/20 05:15:16;;;;;;;23.70;21.20;;;;;;;-0.08;78.16;101073.50;5094120;28;20086;-59
2022/11/20 05:17:50;;;;;;;25.23;22.63;;;;;;;-0.03;78.58;101069.91;5094233;28;20029;-59
2022/11/20 05:20:19;;;;;;;25.90;23.10;;;;;;;-0.14;77.85;101050.06;5111136;28;20120;-59
2022/11/20 05:22:45;;;;;;;24.80;22.13;;;;;;;0.00;77.84;101058.56;5114530;28;20027;-59
2022/11/20 05:25:11;;;;;;;27.87;23.77;;;;;;;-0.02;78.16;101058.56;5101572;28;20024;-59
2022/11/20 05:27:38;;;;;;;25.93;23.17;;;;;;;-0.13;77.72;101047.41;5093733;28;20058;-59
2022/11/20 05:30:05;;;;;;;27.13;23.47;;;;;;;-0.08;77.82;101058.66;5124035;27;20032;-59
2022/11/20 05:32:30;;;;;;;24.20;21.03;;;;;;;-0.07;78.37;101057.75;5093940;28;20035;-59
2022/11/20 05:34:56;;;;;;;26.27;23.53;;;;;;;-0.15;78.04;101046.56;5092889;28;20020;-59
2022/11/20 05:37:22;;;;;;;24.87;21.13;;;;;;;-0.10;78.23;101060.44;5093878;28;20051;-59
2022/11/20 05:39:47;;;;;;;25.23;22.53;;;;;;;-0.11;77.34;101055.25;5095096;28;20063;-60
2022/11/20 05:42:31;;;;;;;25.77;23.03;;;;;;;-0.04;78.05;101067.31;5093178;28;20028;-60
2022/11/20 05:44:58;;;;;;;25.67;21.27;;;;;;;-0.02;77.51;101063.78;5092391;28;20031;-59
2022/11/20 05:47:24;;;;;;;25.57;21.60;;;;;;;-0.06;77.63;101058.63;5093416;28;20101;-59
2022/11/20 05:49:52;;;;;;;26.10;22.57;;;;;;;0.01;77.61;101064.63;5094861;28;20089;-59
2022/11/20 05:52:18;;;;;;;26.13;22.50;;;;;;;0.01;78.23;101067.25;5093464;28;20399;-59
2022/11/20 05:54:43;;;;;;;25.77;22.77;;;;;;;0.01;78.38;101075.09;5093740;28;20028;-59
2022/11/20 05:57:08;;;;;;;26.83;23.27;;;;;;;-0.09;77.58;101080.47;5092461;28;20035;-59
2022/11/20 05:59:34;;;;;;;27.67;21.53;;;;;;;-0.01;77.96;101075.97;5099542;28;20098;-59
2022/11/20 06:02:02;;;;;;;27.23;22.87;;;;;;;-0.10;78.00;101083.09;5078277;28;20040;-59
2022/11/20 06:04:28;;;;;;;25.53;22.90;;;;;;;0.00;78.29;101087.31;5091541;28;20339;-59
2022/11/20 06:06:54;;;;;;;26.37;23.60;;;;;;;0.00;78.45;101084.69;5095946;28;20042;-59
2022/11/20 06:09:20;;;;;;;26.00;23.20;;;;;;;0.01;78.51;101086.41;5096497;28;20036;-59
2022/11/20 06:11:48;;;;;;;24.90;22.33;;;;;;;0.11;78.41;101092.34;5094994;28;20483;-59
2022/11/20 06:14:13;;;;;;;24.40;21.87;;;;;;;0.02;78.33;101076.81;5093142;28;20056;-59
2022/11/20 06:16:38;;;;;;;25.00;22.40;;;;;;;0.08;78.91;101085.41;5091904;28;20047;-60
2022/11/20 06:19:04;;;;;;;24.60;21.97;;;;;;;0.17;78.28;101085.25;5105436;28;20432;-59
2022/11/20 06:21:30;;;;;;;24.13;21.53;;;;;;;0.11;78.63;101087.13;5093380;28;20081;-59
2022/11/20 06:23:58;;;;;;;24.77;22.03;;;;;;;0.08;78.73;101064.50;5091745;28;20127;-59
2022/11/20 06:26:26;;;;;;;27.07;23.27;;;;;;;0.21;78.39;101070.41;5107987;28;20028;-59
2022/11/20 06:28:52;;;;;;;26.30;23.03;;;;;;;0.22;78.40;101083.44;5094044;28;20036;-59
2022/11/20 06:31:20;;;;;;;26.27;23.23;;;;;;;0.22;78.40;101080.81;5100411;28;20031;-59
2022/11/20 06:33:46;;;;;;;27.07;23.33;;;;;;;0.27;78.65;101078.16;5110788;28;20032;-59
2022/11/20 06:36:14;;;;;;;27.43;22.73;;;;;;;0.28;78.72;101069.41;5093443;28;20111;-59
2022/11/20 06:38:40;;;;;;;25.90;22.23;;;;;;;0.28;78.88;101077.25;5093626;28;20054;-59
2022/11/20 06:41:12;;;;;;;25.97;22.80;;;;;;;0.33;79.08;101071.94;5092388;28;20024;-59
2022/11/20 06:43:37;;;;;;;28.00;25.00;;;;;;;0.37;78.65;101058.78;5092954;28;20028;-59
2022/11/20 06:46:03;;;;;;;35.23;31.60;;;;;;;0.42;79.67;101066.56;5092584;28;20031;-59
2022/11/20 06:48:29;;;;;;;26.37;23.57;;;;;;;0.35;79.16;101067.53;5091461;28;20483;-59
2022/11/20 06:50:55;;;;;;;26.83;24.00;;;;;;;0.35;79.10;101064.91;5093517;28;20027;-59
2022/11/20 06:53:24;;;;;;;30.27;27.20;;;;;;;0.35;79.37;101052.69;5094160;28;20055;-59
2022/11/20 06:55:52;;;;;;;31.57;28.37;;;;;;;0.51;79.19;101068.16;5112335;28;20039;-60
2022/11/20 06:58:18;;;;;;;29.70;26.60;;;;;;;0.45;79.12;101061.25;5112243;28;20339;-59
2022/11/20 07:00:44;;;;;;;28.77;25.70;;;;;;;0.51;79.40;101060.28;5101773;28;20020;-59
2022/11/20 07:03:11;;;;;;;27.73;24.73;;;;;;;0.46;79.83;101057.75;5091008;28;20142;-59
2022/11/20 07:05:37;;;;;;;27.20;24.47;;;;;;;0.47;79.73;101058.59;5092146;28;20028;-59
2022/11/20 07:08:03;;;;;;;27.33;24.43;;;;;;;0.39;79.88;101070.09;5092109;28;20152;-59
2022/11/20 07:10:31;;;;;;;28.33;24.70;;;;;;;0.53;80.55;101067.22;5095560;28;20058;-59
2022/11/20 07:12:57;;;;;;;28.90;25.87;;;;;;;0.55;79.57;101057.56;5112459;28;20028;-59
2022/11/20 07:15:24;;;;;;;28.33;25.40;;;;;;;0.54;80.17;101058.47;5112291;28;20565;-59
2022/11/20 07:17:52;;;;;;;30.90;27.60;;;;;;;0.53;79.77;101041.06;5112351;28;20092;-59
2022/11/20 07:20:17;;;;;;;33.17;29.03;;;;;;;0.59;80.18;101053.13;5112293;28;20031;-59
2022/11/20 07:22:43;;;;;;;32.73;28.53;;;;;;;0.58;80.44;101044.44;5108937;28;20080;-59
2022/11/20 07:25:10;;;;;;;33.33;29.70;;;;;;;0.61;80.39;101051.38;5100311;28;20441;-59
2022/11/20 07:27:36;;;;;;;33.87;29.93;;;;;;;0.57;80.53;101057.56;5096075;28;20027;-59
2022/11/20 07:30:04;;;;;;;34.23;29.73;;;;;;;0.56;79.89;101054.09;5110362;28;20019;-59
2022/11/20 07:32:30;;;;;;;31.07;27.77;;;;;;;0.52;80.12;101047.16;5112056;28;20520;-59
2022/11/20 07:34:55;;;;;;;32.93;29.53;;;;;;;0.54;80.32;101036.69;5110684;28;20063;-59
2022/11/20 07:37:21;;;;;;;33.43;29.87;;;;;;;0.53;80.22;101040.16;5110109;28;20383;-59
2022/11/20 07:39:46;;;;;;;31.20;27.40;;;;;;;0.61;80.50;101044.38;5110864;28;20053;-59
2022/11/20 07:42:12;;;;;;;28.73;25.77;;;;;;;0.55;80.88;101043.63;5111257;28;20016;-59
2022/11/20 07:44:38;;;;;;;32.27;25.70;;;;;;;0.58;80.34;101044.44;5106249;28;20661;-59
2022/11/20 07:47:04;;;;;;;29.57;26.40;;;;;;;0.54;80.98;101045.38;5092760;28;20475;-59
2022/11/20 07:49:29;;;;;;;27.93;24.93;;;;;;;0.50;81.05;101043.72;5107839;28;20092;-59
2022/11/20 07:51:55;;;;;;;27.50;24.80;;;;;;;0.44;80.68;101049.06;5110304;28;20067;-59
2022/11/20 07:54:21;;;;;;;30.03;26.50;;;;;;;0.56;80.89;101045.34;5112086;28;20035;-59
2022/11/20 07:56:47;;;;;;;28.97;25.87;;;;;;;0.53;81.44;101033.22;5110146;28;20512;-59
2022/11/20 07:59:13;;;;;;;27.80;24.80;;;;;;;0.63;81.45;101046.97;5093364;28;20134;-59
2022/11/20 08:01:39;;;;;;;28.43;25.40;;;;;;;0.70;80.92;101051.19;5091103;28;20198;-59
2022/11/20 08:04:05;;;;;;;28.30;25.07;;;;;;;0.70;81.13;101056.41;5094628;28;20032;-59
2022/11/20 08:06:33;;;;;;;29.13;25.13;;;;;;;0.82;81.46;101052.72;5091088;28;20036;-59
2022/11/20 08:08:58;;;;;;;28.33;25.33;;;;;;;0.75;81.28;101049.34;5093099;28;20046;-61
2022/11/20 08:14:14;;;;;;;27.90;24.87;;;;;;;0.87;82.14;101049.09;5092410;28;20066;-61
2022/11/20 08:16:49;;;;;;;28.63;25.33;;;;;;;0.86;82.06;101041.31;5092754;28;20071;-61
2022/11/20 08:19:16;;;;;;;29.27;25.80;;;;;;;0.94;82.16;101046.34;5079152;28;20020;-60
2022/11/20 08:21:42;;;;;;;28.03;24.50;;;;;;;1.01;81.80;101048.84;5102426;28;20016;-61
2022/11/20 08:24:09;;;;;;;28.57;25.47;;;;;;;1.04;81.54;101058.41;5102704;28;20491;-64
2022/11/20 08:26:36;;;;;;;31.83;27.67;;;;;;;1.00;81.79;101052.38;5092898;28;20497;-61
2022/11/20 08:29:02;;;;;;;27.77;24.75;;;;;;;1.01;82.10;101051.47;5094266;28;20031;-61
2022/11/20 08:31:27;;;;;;;27.90;23.63;;;;;;;1.00;81.68;101051.47;5095497;28;20035;-61
2022/11/20 08:33:53;;;;;;;27.43;22.80;;;;;;;0.99;82.24;101048.00;5094313;28;20023;-61
2022/11/20 08:36:20;;;;;;;25.75;23.00;;;;;;;1.02;82.46;101050.56;5096684;27;20020;-61
2022/11/20 08:38:50;;;;;;;28.45;24.00;;;;;;;1.07;82.27;101053.09;5094628;28;20046;-60
2022/11/20 08:41:26;;;;;;;27.95;24.52;;;;;;;1.07;82.23;101048.72;5091982;28;20012;-60
2022/11/20 08:44:03;;;;;;;28.45;24.23;;;;;;;1.08;82.96;101044.31;5102885;28;20032;-61
2022/11/20 08:46:47;;;;;;;27.75;23.42;;;;;;;1.16;82.92;101045.03;5094601;28;20399;-61
2022/11/20 08:49:16;;;;;;;25.50;22.80;;;;;;;1.20;82.95;101037.97;5092769;28;20035;-61
2022/11/20 08:51:45;;;;;;;27.20;22.15;;;;;;;1.24;82.88;101048.38;5095322;28;20050;-61
2022/11/20 08:54:10;;;;;;;27.53;24.63;;;;;;;1.24;82.53;101040.50;5093820;28;20403;-61
2022/11/20 08:56:38;;;;;;;28.63;23.30;;;;;;;1.29;82.74;101037.75;5121810;27;20034;-60
2022/11/20 08:59:06;;;;;;;25.80;23.00;;;;;;;1.32;83.16;101041.22;5092756;28;20356;-61
2022/11/20 09:01:31;;;;;;;26.20;22.67;;;;;;;1.29;83.34;101040.38;5093892;28;20037;-61
2022/11/20 09:03:57;;;;;;;28.83;24.75;;;;;;;1.33;83.67;101027.19;5092147;28;20107;-60
2022/11/20 09:06:22;;;;;;;28.63;23.90;;;;;;;1.38;83.70;101036.69;5093603;28;20222;-60
2022/11/20 09:08:53;;;;;;;34.05;26.45;;;;;;;1.39;84.39;101028.81;5096548;28;20040;-60
2022/11/20 09:11:19;;;;;;;32.88;26.63;;;;;;;1.53;83.98;101032.00;5094719;28;20069;-60
2022/11/20 09:13:45;;;;;;;32.95;26.02;;;;;;;1.51;84.58;101030.31;5076173;28;20429;-60
2022/11/20 09:16:10;;;;;;;38.13;27.27;;;;;;;1.53;84.73;101031.13;5096763;28;20131;-60
2022/11/20 09:18:37;;;;;;;39.27;27.97;;;;;;;1.56;84.98;101026.69;5097992;28;20036;-60
2022/11/20 09:21:08;;;;;;;38.65;28.73;;;;;;;1.61;85.39;101023.94;5092730;28;20054;-60
2022/11/20 09:23:35;;;;;;;36.70;28.17;;;;;;;1.64;85.20;101028.25;5092271;28;20105;-60
2022/11/20 09:26:05;;;;;;;41.57;28.97;;;;;;;1.61;85.22;101012.59;5094346;28;20070;-60
2022/11/20 09:28:32;;;;;;;39.93;29.57;;;;;;;1.66;86.04;101008.13;5112665;28;20557;-61
2022/11/20 09:30:57;;;;;;;41.00;28.90;;;;;;;1.66;85.72;100993.25;5147488;27;20019;-61
2022/11/20 09:33:25;;;;;;;40.25;29.92;;;;;;;1.74;86.05;101008.81;5113190;28;20024;-60
2022/11/20 09:35:51;;;;;;;48.03;33.67;;;;;;;1.84;85.87;100998.94;5094556;28;20103;-60
2022/11/20 09:38:16;;;;;;;49.78;33.30;;;;;;;1.88;86.30;100997.97;5109161;28;20073;-60
2022/11/20 09:40:56;;;;;;;52.30;34.55;;;;;;;1.96;86.27;100990.75;5095251;28;20032;-60
2022/11/20 09:43:45;;;;;;;53.40;35.95;;;;;;;1.93;86.59;100983.84;5093607;28;20040;-60
2022/11/20 09:46:29;;;;;;;59.28;37.88;;;;;;;1.95;86.74;100984.66;5093246;28;20081;-60
2022/11/20 09:49:21;;;;;;;60.67;38.53;;;;;;;2.01;86.58;100988.91;5092075;28;20024;-60
2022/11/20 09:51:56;;;;;;;59.07;39.07;;;;;;;2.07;86.43;100980.00;5093531;28;20483;-61
2022/11/20 09:54:29;;;;;;;61.10;40.30;;;;;;;2.13;86.81;100980.72;5093130;28;20036;-60
2022/11/20 09:57:11;;;;;;;60.47;37.28;;;;;;;2.18;87.10;100985.84;5093946;28;20043;-58
2022/11/20 09:59:41;;;;;;;58.63;38.00;;;;;;;2.18;86.55;100978.84;5093847;28;20054;-60
2022/11/20 10:02:24;;;;;;;56.85;36.75;;;;;;;2.13;87.23;100959.72;5093422;28;20032;-60
2022/11/20 10:04:59;;;;;;;56.05;37.67;;;;;;;2.11;87.32;100972.00;5092155;28;20024;-60
2022/11/20 10:07:35;;;;;;;51.78;35.55;;;;;;;2.15;87.28;100962.31;5109838;28;20043;-60
2022/11/20 10:10:00;;;;;;;52.85;36.25;;;;;;;2.12;87.52;100951.88;5113766;28;20034;-60
2022/11/20 10:12:59;;;;;;;91.22;56.53;;;;;;;2.18;87.32;100942.09;5112046;28;20024;-60
2022/11/20 10:15:55;;;;;;;64.40;43.95;;;;;;;2.20;87.29;100939.41;5112031;28;20185;-60
2022/11/20 10:18:48;;;;;;;53.85;38.30;;;;;;;2.23;87.83;100923.59;5113005;28;20460;-61
2022/11/20 10:21:24;;;;;;;56.90;40.63;;;;;;;2.32;88.07;100909.34;5113258;28;20066;-60
2022/11/20 10:24:12;;;;;;;55.58;39.10;;;;;;;2.43;87.25;100904.66;5113421;28;20028;-61
2022/11/20 10:27:13;;;;;;;59.50;41.63;;;;;;;2.57;87.18;100907.75;5098955;28;20482;-61
2022/11/20 10:29:47;;;;;;;54.05;36.45;;;;;;;2.63;87.49;100911.97;5091499;28;20083;-60
2022/11/20 10:32:24;;;;;;;61.63;39.85;;;;;;;2.65;86.86;100904.94;5099334;28;20023;-60
2022/11/20 10:35:05;;;;;;;74.38;48.38;;;;;;;2.66;86.22;100896.13;5082355;28;20496;-61
2022/11/20 10:37:34;;;;;;;56.10;38.58;;;;;;;2.57;87.31;100892.00;5100199;28;20106;-60
2022/11/20 10:40:18;;;;;;;67.18;44.30;;;;;;;2.65;87.23;100879.53;5072295;28;20472;-60
2022/11/20 10:42:48;;;;;;;61.95;43.03;;;;;;;2.69;86.39;100880.28;5073191;28;20025;-60
2022/11/20 10:45:27;;;;;;;109.60;67.72;;;;;;;2.72;86.57;100885.44;5094388;28;20088;-60
2022/11/20 10:48:20;;;;;;;84.77;53.33;;;;;;;2.73;86.16;100874.03;5111686;28;20016;-62
2022/11/20 10:51:10;;;;;;;92.47;60.78;;;;;;;2.68;86.92;100857.56;5088721;28;20035;-61
2022/11/20 10:54:00;;;;;;;120.15;74.88;;;;;;;2.72;86.27;100862.66;5092740;28;20024;-61
2022/11/20 10:56:41;;;;;;;154.98;91.68;;;;;;;2.81;87.32;100856.28;5092143;28;20437;-60
2022/11/20 10:59:27;;;;;;;69.78;46.25;;;;;;;2.86;86.27;100848.28;5094574;28;20065;-60
2022/11/20 11:01:53;;;;;;;91.68;56.60;;;;;;;2.81;86.28;100829.16;5092066;28;20024;-60
2022/11/20 11:04:28;;;;;;;141.88;82.00;;;;;;;2.90;87.34;100836.75;5090961;28;20044;-60
2022/11/20 11:07:00;;;;;;;106.85;66.90;;;;;;;2.87;86.71;100837.69;5090874;28;20047;-60
2022/11/20 11:09:34;;;;;;;82.55;54.50;;;;;;;2.91;86.71;100838.44;5093424;28;20031;-60
2022/11/20 11:12:00;;;;;;;59.67;40.55;;;;;;;2.90;86.70;100837.59;5086966;28;20198;-60
2022/11/20 11:14:26;;;;;;;58.65;41.35;;;;;;;2.93;87.59;100836.66;5090746;28;20055;-60
2022/11/20 11:16:57;;;;;;;61.15;40.10;;;;;;;2.90;87.83;100839.38;5090294;28;20052;-60
2022/11/20 11:19:25;;;;;;;53.78;37.83;;;;;;;2.81;87.74;100822.13;5103356;28;20038;-60
2022/11/20 11:21:56;;;;;;;55.40;39.50;;;;;;;2.84;87.82;100832.53;5094130;28;20029;-60
2022/11/20 11:24:24;;;;;;;56.90;40.42;;;;;;;2.88;88.83;100833.28;5087194;28;20032;-59
2022/11/20 11:27:06;;;;;;;60.58;40.70;;;;;;;2.89;88.85;100825.38;5071091;28;20475;-60
2022/11/20 11:29:32;;;;;;;57.60;40.70;;;;;;;2.90;88.83;100823.59;5080096;28;20024;-60
2022/11/20 11:32:08;;;;;;;57.88;41.13;;;;;;;2.96;88.97;100824.25;5074232;28;20483;-61